Whitleys Peak, Santa Catalina Island Weather observations

Data are for 10 minute period ending at time listed.
 Day   Time   Solar   Ave.   Ave.  Ave.  Vector    Max.   Stn.    Total
  of    of     Rad.   Air    Rel.  Wind   Wind     Wind   Baro.  Precip.
Year   Day            Temp.  Hum.  Speed  Dir.     Gust   Pres.         
2016   (PST)   W/m2    F      %     mph   deg.      mph    mb.     in.  
------------------------------------------------------------------------
 178   10:10  739.0    76   64.5     5     59.3     7.8    999.0   0.00  
 178   10:20  754.0    76   64.1     5     65.4     7.2    999.0   0.00  
 178   10:30  769.0    75   66.1     5     22.8     7.2    999.0   0.00  
 178   10:40  785.0    77   62.3     5     42.8     7.2    999.0   0.00  
 178   10:50  796.0    76   63.7     6     76.5     9.6    999.0   0.00  
 178   11:00  806.0    72   71.5     6    104.3    10.8    999.0   0.00  
 178   11:10  817.0    75   67.1     4     30.6     7.8    999.0   0.00  
 178   11:20  825.0    75   66.8     4     50.5     7.8    999.0   0.00  
 178   11:30  833.0    76   67.0     4     33.9     7.2    999.0   0.00  
 178   11:40  837.0    75   68.2     5     77.3     9.6    999.0   0.00  
 178   11:50  839.0    74   71.1     5     95.1     8.4    999.0   0.00  
 178   12:00  843.0    76   67.9     4     63.3     6.6    999.0   0.00  
 178   12:10  844.0    76   68.5     5     87.8     6.6    999.0   0.00  
 178   12:20  844.0    75   70.4     4    101.2     7.8    999.0   0.00  
 178   12:30  844.0    75   71.2     4     92.6     7.2    999.0   0.00  
 178   12:40  843.0    75   70.7     5     51.4     8.4    999.0   0.00  
 178   12:50  839.0    76   69.3     5     67.7     7.2    999.0   0.00  
 178   13:00  833.0    75   71.2     5     30.3     7.2    999.0   0.00  
 178   13:10  829.0    75   70.3     4     28.5     7.2    999.0   0.00  
 178   13:20  822.0    77   67.2     4     23.8     7.2    999.0   0.00  
 178   13:30  812.0    77   67.3     4      2.3     7.8    999.0   0.00  
 178   13:40  802.0    76   69.3     3    347.7     4.8    999.0   0.00  
 178   13:50  789.0    77   66.4     4     29.5     6.6    999.0   0.00  
 178   14:00  775.0    76   68.3     4     10.8     7.2    999.0   0.00  
 178   14:10  758.0    75   69.5     4      3.2     5.4    999.0   0.00  
 178   14:20  743.0    76   67.9     3     25.8     5.4    999.0   0.00  
 178   14:30  724.0    76   69.1     6     84.0     8.4    999.0   0.00  
 178   14:40  704.0    73   74.8     4     53.5     7.8    999.0   0.00  
 178   14:50  684.0    73   74.3     5     48.0     7.8    999.0   0.00  
 178   15:00  663.0    73   74.8     4      9.2     7.2    999.0   0.00  
 178   15:10  642.0    73   75.3     4     17.0     6.6    999.0   0.00  
 178   15:20  620.0    75   71.2     3     25.8     6.0    999.0   0.00  
 178   15:30  595.0    73   73.8     4     44.3     5.4    999.0   0.00  
 178   15:40  568.0    70   81.5     5     60.3     7.2    999.0   0.00  
 178   15:50  541.0    68   86.9     4     96.9     6.0    999.0   0.00  
 178   16:00  516.0    68   85.3     3     70.1     4.8    999.0   0.00  
 178   16:10  489.0    70   81.0     4     25.2     7.2    999.0   0.00  
 178   16:20  461.0    68   86.0     4     68.1     5.4    999.0   0.00  
 178   16:30  432.0    69   84.8     5    355.4     9.6    999.0   0.00  
 178   16:40  402.0    69   83.6     5      2.9     7.2    999.0   0.00  
 178   16:50  372.0    69   85.0     4     14.7     7.2    999.0   0.00  
 178   17:00  342.0    68   86.0     5      1.0     6.6    999.0   0.00  
 178   17:10  306.0    67   87.8     4      3.3     6.6    999.0   0.00  
 178   17:20  252.0    67   88.5     5      4.7     7.8    999.0   0.00  
 178   17:30  226.0    66   90.0     4     16.5     6.0    999.0   0.00  
 178   17:40  210.0    67   89.1     3    356.3     4.2    999.0   0.00  
 178   17:50  158.0    66   91.5     4    329.8     6.0    999.0   0.00  
 178   18:00  154.0    66   91.4     3    335.9     5.4    999.0   0.00  
 178   18:10   74.0    65   92.4     3    351.6     5.4    999.0   0.00  
 178   18:20   60.0    64   94.3     3      5.4     4.8    999.0   0.00  
 178   18:30   41.0    64   95.4     3    347.6     4.2    999.0   0.00  
 178   18:40   27.0    63   95.6     4    324.3     6.6    999.0   0.00  
 178   18:50   18.0    63   96.3     4    325.1     6.6    999.0   0.00  
 178   19:00   13.0    62   96.7     2    354.9     5.4    999.0   0.00  
 178   19:10    6.0    62   96.9     4    213.7     6.6    999.0   0.00  
 178   19:20    2.0    64   95.9     6    178.7     8.4    999.0   0.00  
 178   19:30    0.0    64   93.2     5    170.8     8.4    999.0   0.00  
 178   19:40    0.0    65   89.4     2    117.5     3.6    999.0   0.00  
 178   19:50    0.0    64   92.6     1    113.3     2.4    999.0   0.00  
 178   20:00    0.0    64   92.6     2    107.0     4.2    999.0   0.00  
 178   20:10    0.0    63   93.4     2    111.8     4.8    999.0   0.00  
 178   20:20    0.0    62   96.4     4    102.7     6.0    999.0   0.00  
 178   20:30    0.0    62   97.0     5     83.9     6.6    999.0   0.00  
 178   20:40    0.0    62   97.3     3     79.5     6.0    999.0   0.00  
 178   20:50    0.0    63   97.5     4     91.2     9.6    999.0   0.00  
 178   21:00    0.0    69   84.9     9    116.3    13.1    999.0   0.00  
 178   21:10    0.0    64   92.1     3    121.9     4.8    999.0   0.00  
 178   21:20    0.0    68   83.7     4    118.2     6.6    999.0   0.00  
 178   21:30    0.0    72   74.2     4    133.8     6.0    999.0   0.00  
 178   21:40    0.0    73   72.6     4    150.9     5.4    999.0   0.00  
 178   21:50    0.0    74   71.6     4    152.9     5.4    999.0   0.00  
 178   22:00    0.0    74   70.8     4    117.8     4.8    999.0   0.00  
 178   22:10    0.0    71   74.5     3     93.5     4.8    999.0   0.00  
 178   22:20    0.0    62   92.9     5    119.2     7.2    999.0   0.00  
 178   22:30    0.0    62   96.2     2     91.9     3.6    999.0   0.00  
 178   22:40    0.0    66   90.8     4    124.0     6.0    999.0   0.00  
 178   22:50    0.0    71   78.3     6    138.6     7.8    999.0   0.00  
 178   23:00    0.0    75   67.4     7    142.5     8.4    999.0   0.00  
 178   23:10    0.0    75   66.6     6    140.6     7.2    999.0   0.00  
 178   23:20    0.0    75   66.5     5    153.4     6.0    999.0   0.00  
 178   23:30    0.0    75   65.8     4    135.4     5.4    999.0   0.00  
 178   23:40    0.0    70   76.0     5    122.2     8.4    999.0   0.00  
 178   23:50    0.0    67   81.0     5    128.3     6.6    999.0   0.00  
 179    0:00    0.0    70   75.0     4    145.0     5.4    999.0   0.00  
 179    0:10    0.0    74   67.1     4    159.3     6.0    999.0   0.00  
 179    0:20    0.0    76   63.3     5    184.7     6.6    999.0   0.00  
 179    0:30    0.0    76   60.2     4    187.3     4.8    999.0   0.00  
 179    0:40    0.0    76   59.4     4    202.2     4.8    999.0   0.00  
 179    0:50    0.0    77   57.7     2    226.1     4.2    999.0   0.00  
 179    1:00    0.0    77   55.6     3     29.2     4.8    999.0   0.00  
 179    1:10    0.0    71   70.5     3     95.7     4.8    999.0   0.00  
 179    1:20    0.0    70   70.3     5    145.2     6.6    999.0   0.00  
 179    1:30    0.0    75   58.8     3    143.4     5.4    999.0   0.00  
 179    1:40    0.0    67   77.5     6    130.5     6.6    999.0   0.00  
 179    1:50    0.0    64   86.5     7    114.9     9.0    999.0   0.00  
 179    2:00    0.0    64   88.1     5    118.0     7.2    999.0   0.00  
 179    2:10    0.0    65   84.2     5    129.2     7.2    999.0   0.00  
 179    2:20    0.0    68   75.8     1    129.6     3.6    999.0   0.00  
 179    2:30    0.0    69   74.1     3    131.9     5.4    999.0   0.00  
 179    2:40    0.0    68   74.8     4    103.3     5.4    999.0   0.00  
 179    2:50    0.0    68   73.8     4    105.7     5.4    999.0   0.00  
 179    3:00    0.0    69   72.7     6    119.4     6.6    999.0   0.00  
 179    3:10    0.0    69   72.4     6    105.6     7.2    999.0   0.00  
 179    3:20    0.0    69   71.7     6    115.9     6.6    999.0   0.00  
 179    3:30    0.0    68   73.3     7    114.2     9.0    999.0   0.00  
 179    3:40    0.0    68   73.8     6    107.6     7.2    999.0   0.00  
 179    3:50    0.0    69   72.8     6    113.4     8.4    999.0   0.00  
 179    4:00    0.0    69   72.2     6    113.8     8.4    999.0   0.00  
 179    4:10    0.0    68   74.8     6     83.7     7.2    999.0   0.00  
 179    4:20    0.0    67   76.7     5     68.1     7.2    999.0   0.00  
 179    4:30    0.0    62   89.1     5     83.4     7.2    999.0   0.00  
 179    4:40    0.0    61   93.9     5     87.9     7.2    999.0   0.00  
 179    4:50    0.0    60   96.1     6    116.0     8.4    999.0   0.00  
 179    5:00    6.0    60   96.8     5    112.0     7.8    999.0   0.00  
 179    5:10   12.0    64   91.8     6    121.7     6.6    999.0   0.00  
 179    5:20   17.0    67   82.8     7    119.4     8.4    999.0   0.00  
 179    5:30   27.0    69   71.9     8    117.5     9.6    999.0   0.00  
 179    5:40   39.0    70   70.4     6    118.7     9.0    999.0   0.00  
 179    5:50   60.0    70   70.9     5     97.5     6.6    999.0   0.00  
 179    6:00   86.0    71   67.2     7    108.7    10.2    999.0   0.00  
 179    6:10  111.0    73   62.5     8    124.8    10.8    999.0   0.00  
 179    6:20  135.0    76   58.5     7    119.6    10.2    999.0   0.00  
 179    6:30  160.0    77   56.7     5    122.7     9.0    999.0   0.00  
 179    6:40  187.0    77   56.9     4    108.5     6.6    999.0   0.00  
 179    6:50  215.0    74   67.8     3    100.1     7.2    999.0   0.00  
 179    7:00  243.0    75   63.0     5    130.3     7.2    999.0   0.00  
 179    7:10  272.0    76   60.2     4    152.5     6.6    999.0   0.00  
 179    7:20  300.0    78   54.6     4    204.2     6.6    999.0   0.00  
 179    7:30  330.0    72   72.4     5    206.9     9.0    999.0   0.00  
 179    7:40  323.0    70   78.1    10    116.7    14.9    999.0   0.00  
 179    7:50  219.0    63   93.9     8     90.0    12.5    999.0   0.00  
 179    8:00  270.0    62   95.2     6     91.0    10.2    999.0   0.00  
 179    8:10  442.0    66   91.0     5    205.3     7.8    999.0   0.00  
 179    8:20  469.0    72   75.7     5    148.2     9.6    999.0   0.00  
 179    8:30  496.0    67   85.7     6    108.4     9.6    999.0   0.00  
 179    8:40  480.0    67   86.7     5    100.1     9.6    999.0   0.00  
 179    8:50  477.0    66   87.6     4    108.8    10.2    999.0   0.00  
 179    9:00  571.0    69   81.6     4    265.6     7.8    999.0   0.00  
 179    9:10  595.0    73   73.3     6    127.2    10.2    999.0   0.00  
 179    9:20  617.0    72   75.6     4     59.2     9.6    999.0   0.00  
 179    9:30  639.0    71   78.4     5     54.9     9.0    999.0   0.00  
 179    9:40  658.0    71   78.5     5     69.3     9.0    999.0   0.00  
 179    9:50  678.0    73   74.6     4     23.6     6.6    999.0   0.00  
 179   10:00  697.0    75   70.2     4     63.6     7.8    999.0   0.00  

Return to Whitleys Peak graphs page.


Western Regional Climate Center,wrcc@dri.edu